createdAt,value
2023-01-17T00:05:12.379Z,6.14
2023-01-17T00:10:26.327Z,6.14
2023-01-17T00:15:30.964Z,6.17
2023-01-17T00:20:51.514Z,6.07
2023-01-17T00:26:06.064Z,6.11
2023-01-17T00:31:09.934Z,6.08
2023-01-17T00:36:12.225Z,6.09
2023-01-17T00:41:17.955Z,6.11
2023-01-17T00:46:38.987Z,6.07
2023-01-17T00:51:59.751Z,5.97
2023-01-17T00:57:22.026Z,5.89
2023-01-17T01:02:43.509Z,5.81
2023-01-17T01:08:04.015Z,5.78
2023-01-17T01:13:25.102Z,5.69
2023-01-17T01:18:45.581Z,5.69
2023-01-17T01:24:06.082Z,5.65
2023-01-17T01:29:26.783Z,5.64
2023-01-17T01:34:28.628Z,5.65
2023-01-17T01:39:30.678Z,5.62
2023-01-17T01:44:50.920Z,5.60
2023-01-17T01:49:53.004Z,5.59
2023-01-17T01:55:01.888Z,5.61
2023-01-17T02:00:14.694Z,5.53
2023-01-17T02:05:20.731Z,5.43
2023-01-17T02:10:22.433Z,5.47
2023-01-17T02:15:32.177Z,5.43
2023-01-17T02:20:52.228Z,5.39
2023-01-17T02:26:38.544Z,5.34
2023-01-17T02:31:40.191Z,5.32
2023-01-17T02:36:55.915Z,5.35
2023-01-17T02:42:02.909Z,5.35
2023-01-17T02:47:24.246Z,5.30
2023-01-17T02:52:51.193Z,5.33
2023-01-17T02:58:16.041Z,5.37
2023-01-17T03:03:53.920Z,5.38
2023-01-17T03:08:55.883Z,5.37
2023-01-17T03:13:58.519Z,5.38
2023-01-17T03:19:00.786Z,5.37
2023-01-17T03:24:03.377Z,5.32
2023-01-17T03:29:05.188Z,5.33
2023-01-17T03:34:06.985Z,5.29
2023-01-17T03:39:08.844Z,5.29
2023-01-17T03:44:10.688Z,5.33
2023-01-17T03:49:12.449Z,5.26
2023-01-17T03:54:14.374Z,5.27
2023-01-17T03:59:16.121Z,5.26
2023-01-17T04:04:18.890Z,5.18
2023-01-17T04:09:20.801Z,5.15
2023-01-17T04:14:22.499Z,5.09
2023-01-17T04:19:24.491Z,5.09
2023-01-17T04:24:26.165Z,5.03
2023-01-17T04:29:27.880Z,5.03
2023-01-17T04:34:29.569Z,4.98
2023-01-17T04:39:31.518Z,4.98
2023-01-17T04:44:33.587Z,4.96
2023-01-17T04:49:35.228Z,4.96
2023-01-17T04:54:36.877Z,5.01
2023-01-17T04:59:38.779Z,5.02
2023-01-17T05:04:40.841Z,5.06
2023-01-17T05:09:43.980Z,5.12
2023-01-17T05:14:45.807Z,5.12
2023-01-17T05:19:47.587Z,5.17
2023-01-17T05:24:49.446Z,5.20
2023-01-17T05:29:51.492Z,5.20
2023-01-17T05:34:53.287Z,5.18
2023-01-17T05:39:55.106Z,5.15
2023-01-17T05:44:56.988Z,5.16
2023-01-17T05:50:00.035Z,5.17
2023-01-17T05:55:01.743Z,5.19
2023-01-17T06:00:03.977Z,5.17
2023-01-17T06:05:07.088Z,5.13
2023-01-17T06:10:10.872Z,5.11
2023-01-17T06:15:14.772Z,5.11
2023-01-17T06:20:16.711Z,5.10
2023-01-17T06:25:18.598Z,5.11
2023-01-17T06:30:20.517Z,5.10
2023-01-17T06:35:23.273Z,5.10
2023-01-17T06:40:26.181Z,5.06
2023-01-17T06:45:30.147Z,5.04
2023-01-17T06:50:33.061Z,5.04
2023-01-17T06:55:35.100Z,5.06
2023-01-17T07:00:39.422Z,5.06
2023-01-17T07:05:42.348Z,5.08
2023-01-17T07:10:48.262Z,5.09
2023-01-17T07:15:49.923Z,5.09
2023-01-17T07:20:52.381Z,5.10
2023-01-17T07:25:59.642Z,5.12
2023-01-17T07:31:08.196Z,5.13
2023-01-17T07:36:10.534Z,5.16
2023-01-17T07:41:12.525Z,5.21
2023-01-17T07:46:15.397Z,5.25
2023-01-17T07:51:18.016Z,5.29
2023-01-17T07:56:19.963Z,5.30
2023-01-17T08:01:21.748Z,5.32
2023-01-17T08:06:26.249Z,5.34
2023-01-17T08:11:28.025Z,5.34
2023-01-17T08:16:30.156Z,5.36
2023-01-17T08:21:32.139Z,5.43
2023-01-17T08:26:34.121Z,5.51
2023-01-17T08:31:36.257Z,5.56
2023-01-17T08:36:37.947Z,5.61
2023-01-17T08:41:39.951Z,5.70
2023-01-17T08:46:41.877Z,5.76
2023-01-17T08:51:43.591Z,5.85
2023-01-17T08:56:46.985Z,5.95
2023-01-17T09:01:49.006Z,6.04
2023-01-17T09:06:50.868Z,6.12
2023-01-17T09:11:53.425Z,6.22
2023-01-17T09:16:55.189Z,6.26
2023-01-17T09:21:57.575Z,6.29
2023-01-17T09:27:00.034Z,6.37
2023-01-17T09:32:02.208Z,6.37
2023-01-17T09:37:04.143Z,6.42
2023-01-17T09:42:39.146Z,6.47
2023-01-17T09:47:45.372Z,6.53
2023-01-17T09:52:48.090Z,6.58
2023-01-17T09:58:06.407Z,6.63
2023-01-17T10:03:41.257Z,6.68
2023-01-17T10:09:20.365Z,6.76
2023-01-17T10:14:29.584Z,6.78
2023-01-17T10:19:53.323Z,6.78
2023-01-17T10:25:13.417Z,6.80
2023-01-17T10:30:29.181Z,6.91
2023-01-17T10:35:36.938Z,6.98
2023-01-17T10:40:41.375Z,7.03
2023-01-17T10:45:53.111Z,7.10
2023-01-17T10:51:30.828Z,7.23
2023-01-17T10:56:34.676Z,7.33
2023-01-17T11:01:36.480Z,7.37
2023-01-17T11:06:49.738Z,7.38
2023-01-17T11:12:01.851Z,7.42
2023-01-17T11:17:07.056Z,7.47
2023-01-17T11:22:15.318Z,7.53
2023-01-17T11:27:24.540Z,7.57
2023-01-17T11:32:32.685Z,7.69
2023-01-17T11:37:35.813Z,7.80
2023-01-17T11:42:38.792Z,7.98
2023-01-17T11:47:40.592Z,8.17
2023-01-17T11:52:42.338Z,8.30
2023-01-17T11:57:50.685Z,8.43
2023-01-17T12:03:10.544Z,8.53
2023-01-17T12:08:40.339Z,8.69
2023-01-17T12:14:08.193Z,8.86
2023-01-17T12:19:37.994Z,8.97
2023-01-17T12:24:50.135Z,9.05
2023-01-17T12:30:03.039Z,9.13
2023-01-17T12:35:27.922Z,9.18
2023-01-17T12:40:39.993Z,9.21
2023-01-17T12:45:47.573Z,9.15
2023-01-17T12:51:08.841Z,9.07
2023-01-17T12:56:24.436Z,9.09
2023-01-17T13:01:43.388Z,9.13
2023-01-17T13:07:06.532Z,9.16
2023-01-17T13:12:14.481Z,9.17
2023-01-17T13:17:32.119Z,9.18
2023-01-17T13:22:37.145Z,9.16
2023-01-17T13:27:50.973Z,9.16
2023-01-17T13:33:17.368Z,9.13
2023-01-17T13:38:54.927Z,9.09
2023-01-17T13:44:18.570Z,9.05
2023-01-17T13:49:41.261Z,9.00
2023-01-17T13:54:51.737Z,8.97
2023-01-17T13:59:54.805Z,8.92
2023-01-17T14:05:09.387Z,8.88
2023-01-17T14:10:37.630Z,8.87
2023-01-17T14:15:49.952Z,8.87
2023-01-17T14:21:04.776Z,8.88
2023-01-17T14:26:21.191Z,8.91
2023-01-17T14:31:23.948Z,8.97
2023-01-17T14:36:30.429Z,8.96
2023-01-17T14:41:32.307Z,8.94
2023-01-17T14:46:34.743Z,8.85
2023-01-17T14:51:37.372Z,8.75
2023-01-17T14:56:39.350Z,8.65
2023-01-17T15:01:42.108Z,8.57
2023-01-17T15:06:45.737Z,8.51
2023-01-17T15:11:51.101Z,8.45
2023-01-17T15:16:53.343Z,8.38
2023-01-17T15:21:55.438Z,8.31
2023-01-17T15:26:57.210Z,8.23
2023-01-17T15:32:01.278Z,8.16
2023-01-17T15:37:22.376Z,8.08
2023-01-17T15:42:27.385Z,7.99
2023-01-17T15:47:31.367Z,7.91
2023-01-17T15:52:33.712Z,7.83
2023-01-17T15:57:39.010Z,7.75
2023-01-17T16:02:58.765Z,7.68
2023-01-17T16:08:04.509Z,7.59
2023-01-17T16:13:08.254Z,7.51
2023-01-17T16:18:17.824Z,7.41
2023-01-17T16:23:19.422Z,7.32
2023-01-17T16:28:21.224Z,7.26
2023-01-17T16:33:23.004Z,7.22
2023-01-17T16:38:24.842Z,7.16
2023-01-17T16:43:26.655Z,7.09
2023-01-17T16:48:28.428Z,7.01
2023-01-17T16:53:30.367Z,6.95
2023-01-17T16:58:32.016Z,6.87
2023-01-17T17:03:33.815Z,6.82
2023-01-17T17:08:36.958Z,6.77
2023-01-17T17:13:41.032Z,6.73
2023-01-17T17:18:45.181Z,6.70
2023-01-17T17:23:51.345Z,6.65
2023-01-17T17:28:55.275Z,6.60
2023-01-17T17:34:00.751Z,6.56
2023-01-17T17:39:06.697Z,6.45
2023-01-17T17:44:08.913Z,6.39
2023-01-17T17:49:10.710Z,6.33
2023-01-17T17:54:14.252Z,6.28
2023-01-17T17:59:20.337Z,6.22
2023-01-17T18:04:22.198Z,6.21
2023-01-17T18:09:26.694Z,6.17
2023-01-17T18:14:28.925Z,6.07
2023-01-17T18:19:42.590Z,6.00
2023-01-17T18:24:45.161Z,5.99
2023-01-17T18:29:49.298Z,6.01
2023-01-17T18:34:51.792Z,6.04
2023-01-17T18:39:55.473Z,6.06
2023-01-17T18:44:57.169Z,6.08
2023-01-17T18:49:59.226Z,6.11
2023-01-17T18:55:01.110Z,6.12
2023-01-17T19:00:04.406Z,6.08
2023-01-17T19:05:08.833Z,6.02
2023-01-17T19:10:11.081Z,6.01
2023-01-17T19:15:12.898Z,6.03
2023-01-17T19:20:14.799Z,6.04
2023-01-17T19:25:16.973Z,6.05
2023-01-17T19:30:21.831Z,6.06
2023-01-17T19:35:23.844Z,6.07
2023-01-17T19:40:26.768Z,5.97
2023-01-17T19:50:46.256Z,5.70
2023-01-17T19:55:48.348Z,5.59
2023-01-17T20:00:52.807Z,5.60
2023-01-17T20:05:57.918Z,5.67
2023-01-17T20:11:09.095Z,5.71
2023-01-17T20:16:14.143Z,5.75
2023-01-17T20:21:18.722Z,5.80
2023-01-17T20:26:38.570Z,5.85
2023-01-17T20:31:42.130Z,5.90
2023-01-17T20:36:43.986Z,5.92
2023-01-17T20:41:46.476Z,5.96
2023-01-17T20:46:48.458Z,5.99
2023-01-17T20:51:50.348Z,6.00
2023-01-17T20:56:53.893Z,6.02
2023-01-17T21:01:55.977Z,6.02
2023-01-17T21:06:58.260Z,6.03
2023-01-17T21:12:01.888Z,6.02
2023-01-17T21:17:03.817Z,6.03
2023-01-17T21:22:05.716Z,6.03
2023-01-17T21:27:07.372Z,6.03
2023-01-17T21:32:09.677Z,6.04
2023-01-17T21:37:11.451Z,6.04
2023-01-17T21:42:13.244Z,6.04
2023-01-17T21:47:15.432Z,6.03
2023-01-17T21:52:17.413Z,6.01
2023-01-17T21:57:39.802Z,6.00
2023-01-17T22:02:46.334Z,5.97
2023-01-17T22:08:07.076Z,5.95
2023-01-17T22:13:10.200Z,5.90
2023-01-17T22:18:13.237Z,5.87
2023-01-17T22:23:15.428Z,5.84
2023-01-17T22:28:17.936Z,5.83
2023-01-17T22:33:21.070Z,5.82
2023-01-17T22:38:24.162Z,5.80
2023-01-17T22:43:27.329Z,5.79
2023-01-17T22:48:31.253Z,5.77
2023-01-17T22:53:33.120Z,5.73
2023-01-17T22:58:36.686Z,5.73
2023-01-17T23:03:41.074Z,5.71
2023-01-17T23:08:45.634Z,5.72
2023-01-17T23:13:48.570Z,5.72
2023-01-17T23:19:09.206Z,5.71
2023-01-17T23:24:11.062Z,5.70
2023-01-17T23:29:13.057Z,5.72
2023-01-17T23:34:14.956Z,5.72
2023-01-17T23:39:16.965Z,5.71
2023-01-17T23:44:19.494Z,5.69
2023-01-17T23:49:21.399Z,5.65
2023-01-17T23:54:23.130Z,5.65
2023-01-17T23:59:25.029Z,5.64
